createdAt,value
2023-03-21T00:00:17.325Z,1016.552099
2023-03-21T00:05:17.527Z,1016.521687
2023-03-21T00:10:26.760Z,1016.477897
2023-03-21T00:15:19.056Z,1016.488969
2023-03-21T00:20:17.809Z,1016.523838
2023-03-21T00:25:17.421Z,1016.527535
2023-03-21T00:30:17.318Z,1016.554998
2023-03-21T00:35:51.659Z,1016.516208
2023-03-21T00:40:26.581Z,1016.476871
2023-03-21T00:45:17.487Z,1016.494697
2023-03-21T00:50:17.274Z,1016.497475
2023-03-21T00:55:17.315Z,1016.451826
2023-03-21T01:00:17.670Z,1016.434140
2023-03-21T01:05:17.652Z,1016.351627
2023-03-21T01:10:17.323Z,1016.351904
2023-03-21T01:15:17.308Z,1016.395713
2023-03-21T01:20:17.373Z,1016.390247
2023-03-21T01:25:22.630Z,1016.420673
2023-03-21T01:30:21.512Z,1016.408488
2023-03-21T01:35:17.312Z,1016.338436
2023-03-21T01:40:17.896Z,1016.330038
2023-03-21T01:45:17.327Z,1016.349931
2023-03-21T01:50:17.635Z,1016.285895
2023-03-21T01:55:18.092Z,1016.327253
2023-03-21T02:00:17.496Z,1016.356317
2023-03-21T02:05:18.170Z,1016.362284
2023-03-21T02:10:17.436Z,1016.330498
2023-03-21T02:15:17.190Z,1016.268673
2023-03-21T02:20:17.223Z,1016.260063
2023-03-21T02:25:22.183Z,1016.255950
2023-03-21T02:30:26.743Z,1016.194176
2023-03-21T02:35:17.325Z,1016.161261
2023-03-21T02:40:17.492Z,1016.174622
2023-03-21T02:45:17.292Z,1016.123060
2023-03-21T02:50:17.227Z,1016.079097
2023-03-21T02:55:17.633Z,1016.096908
2023-03-21T03:00:18.032Z,1016.039026
2023-03-21T03:05:24.327Z,1016.017034
2023-03-21T03:10:17.357Z,1016.040306
2023-03-21T03:15:17.426Z,1016.054538
2023-03-21T03:20:17.674Z,1016.114463
2023-03-21T03:25:24.938Z,1016.101221
2023-03-21T03:30:17.253Z,1016.162159
2023-03-21T03:35:17.367Z,1016.169100
2023-03-21T03:40:17.215Z,1016.149941
2023-03-21T03:45:17.389Z,1016.130394
2023-03-21T03:50:17.785Z,1016.173456
2023-03-21T03:55:17.276Z,1016.184648
2023-03-21T04:00:17.886Z,1016.261161
2023-03-21T04:05:17.252Z,1016.291168
2023-03-21T04:10:17.383Z,1016.322540
2023-03-21T04:15:17.283Z,1016.334270
2023-03-21T04:20:26.671Z,1016.323234
2023-03-21T04:25:30.725Z,1016.333248
2023-03-21T04:30:17.148Z,1016.343879
2023-03-21T04:35:17.505Z,1016.317926
2023-03-21T04:40:17.636Z,1016.321159
2023-03-21T04:45:17.253Z,1016.321897
2023-03-21T04:50:17.265Z,1016.325341
2023-03-21T04:55:17.346Z,1016.284122
2023-03-21T05:00:17.282Z,1016.216054
2023-03-21T05:05:17.714Z,1016.176553
2023-03-21T05:10:17.215Z,1016.148441
2023-03-21T05:15:17.194Z,1016.129887
2023-03-21T05:20:17.574Z,1016.102863
2023-03-21T05:25:17.690Z,1016.078112
2023-03-21T05:30:17.932Z,1016.084520
2023-03-21T05:35:17.255Z,1016.114110
2023-03-21T05:40:17.607Z,1016.096718
2023-03-21T05:45:17.698Z,1016.104597
2023-03-21T05:50:17.641Z,1016.102014
2023-03-21T05:55:17.726Z,1016.074354
2023-03-21T06:00:17.312Z,1016.095731
2023-03-21T06:05:17.292Z,1016.085039
2023-03-21T06:10:17.215Z,1016.082220
2023-03-21T06:15:17.240Z,1016.110145
2023-03-21T06:20:17.124Z,1016.145236
2023-03-21T06:25:17.705Z,1016.113356
2023-03-21T06:30:17.182Z,1016.091391
2023-03-21T06:35:17.102Z,1016.155085
2023-03-21T06:40:17.324Z,1016.148187
2023-03-21T06:45:17.419Z,1016.179148
2023-03-21T06:50:17.162Z,1016.233434
2023-03-21T06:55:17.477Z,1016.275782
2023-03-21T07:00:17.217Z,1016.278188
2023-03-21T07:05:17.358Z,1016.253871
2023-03-21T07:10:17.320Z,1016.270431
2023-03-21T07:15:17.109Z,1016.278842
2023-03-21T07:25:17.669Z,1016.303681
2023-03-21T07:30:17.410Z,1016.210815
2023-03-21T07:35:17.155Z,1016.123655
2023-03-21T07:40:17.561Z,1016.119673
2023-03-21T07:45:19.291Z,1016.137385
2023-03-21T07:50:17.010Z,1016.134076
2023-03-21T07:55:17.304Z,1016.099258
2023-03-21T08:00:17.183Z,1016.099027
2023-03-21T08:05:18.036Z,1016.098382
2023-03-21T08:10:17.192Z,1016.077884
2023-03-21T08:15:17.448Z,1016.079621
2023-03-21T08:20:17.553Z,1016.083908
2023-03-21T08:25:17.207Z,1016.113347
2023-03-21T08:30:17.215Z,1016.145222
2023-03-21T08:35:17.136Z,1016.146256
2023-03-21T08:40:17.203Z,1016.099815
2023-03-21T08:45:17.321Z,1016.041961
2023-03-21T08:50:17.390Z,1016.024522
2023-03-21T08:55:17.232Z,1015.950569
2023-03-21T09:00:17.124Z,1015.898773
2023-03-21T09:05:17.568Z,1015.874799
2023-03-21T09:10:21.830Z,1015.858686
2023-03-21T09:15:17.091Z,1015.847772
2023-03-21T09:20:17.209Z,1015.864802
2023-03-21T09:25:17.481Z,1015.788369
2023-03-21T09:30:17.132Z,1015.781385
2023-03-21T09:35:17.100Z,1015.726207
2023-03-21T09:40:17.161Z,1015.663454
2023-03-21T09:45:17.293Z,1015.618258
2023-03-21T09:50:17.058Z,1015.599368
2023-03-21T09:55:17.041Z,1015.633169
2023-03-21T10:00:17.925Z,1015.546329
2023-03-21T10:05:17.408Z,1015.522437
2023-03-21T10:10:17.306Z,1015.503556
2023-03-21T10:15:17.111Z,1015.484231
2023-03-21T10:20:17.140Z,1015.431871
2023-03-21T10:25:17.233Z,1015.436700
2023-03-21T10:30:17.018Z,1015.360765
2023-03-21T10:35:17.250Z,1015.239539
2023-03-21T10:40:17.145Z,1015.218274
2023-03-21T10:45:17.303Z,1015.177520
2023-03-21T10:50:17.580Z,1015.198670
2023-03-21T10:55:17.405Z,1015.188851
2023-03-21T11:00:17.544Z,1015.155830
2023-03-21T11:05:19.452Z,1015.094913
2023-03-21T11:10:26.478Z,1015.005438
2023-03-21T11:15:17.108Z,1014.945240
2023-03-21T11:20:17.272Z,1014.897781
2023-03-21T11:25:17.133Z,1014.767401
2023-03-21T11:30:17.106Z,1014.734573
2023-03-21T11:35:18.920Z,1014.675233
2023-03-21T11:40:17.154Z,1014.660500
2023-03-21T11:45:17.134Z,1014.651839
2023-03-21T11:50:17.191Z,1014.568171
2023-03-21T11:55:17.581Z,1014.430494
2023-03-21T12:00:17.078Z,1014.275692
2023-03-21T12:05:17.348Z,1014.255263
2023-03-21T12:10:17.073Z,1014.173840
2023-03-21T12:15:17.269Z,1014.123790
2023-03-21T12:20:17.769Z,1014.024027
2023-03-21T12:25:17.173Z,1013.993019
2023-03-21T12:30:17.012Z,1013.895823
2023-03-21T12:35:17.604Z,1013.837622
2023-03-21T12:40:18.044Z,1013.745806
2023-03-21T12:45:17.477Z,1013.649623
2023-03-21T12:50:17.349Z,1013.579327
2023-03-21T12:55:17.270Z,1013.503313
2023-03-21T13:00:17.235Z,1013.455865
2023-03-21T13:05:17.775Z,1013.392722
2023-03-21T13:10:17.219Z,1013.354576
2023-03-21T13:15:23.636Z,1013.275972
2023-03-21T13:20:16.947Z,1013.146330
2023-03-21T13:25:17.081Z,1013.090858
2023-03-21T13:30:17.161Z,1013.056987
2023-03-21T13:35:17.054Z,1013.047857
2023-03-21T13:40:17.056Z,1012.992071
2023-03-21T13:45:17.433Z,1012.969267
2023-03-21T13:50:17.271Z,1012.855255
2023-03-21T13:55:17.166Z,1012.808775
2023-03-21T14:00:17.079Z,1012.759569
2023-03-21T14:05:17.291Z,1012.701027
2023-03-21T14:10:17.007Z,1012.669140
2023-03-21T14:15:17.320Z,1012.620963
2023-03-21T14:20:17.044Z,1012.612458
2023-03-21T14:25:17.364Z,1012.573057
2023-03-21T14:30:17.015Z,1012.564162
2023-03-21T14:35:17.059Z,1012.518070
2023-03-21T14:40:17.013Z,1012.434468
2023-03-21T14:45:19.579Z,1012.364859
2023-03-21T14:50:16.946Z,1012.322356
2023-03-21T14:55:17.565Z,1012.303054
2023-03-21T15:00:17.593Z,1012.206376
2023-03-21T15:05:18.358Z,1012.109330
2023-03-21T15:10:17.048Z,1012.074095
2023-03-21T15:15:16.911Z,1012.069034
2023-03-21T15:20:16.929Z,1011.988371
2023-03-21T15:25:17.165Z,1011.953149
2023-03-21T15:30:17.135Z,1011.929454
2023-03-21T15:35:17.135Z,1011.887863
2023-03-21T15:40:17.061Z,1011.890105
2023-03-21T15:45:16.978Z,1011.865255
2023-03-21T15:50:17.297Z,1011.893185
2023-03-21T15:55:17.289Z,1011.824019
2023-03-21T16:00:16.944Z,1011.784442
2023-03-21T16:05:17.079Z,1011.716224
2023-03-21T16:10:17.022Z,1011.692643
2023-03-21T16:15:16.926Z,1011.738907
2023-03-21T16:20:17.166Z,1011.748656
2023-03-21T16:25:17.193Z,1011.715232
2023-03-21T16:30:17.325Z,1011.740744
2023-03-21T16:35:17.170Z,1011.800781
2023-03-21T16:40:17.345Z,1011.863194
2023-03-21T16:45:17.085Z,1011.913071
2023-03-21T16:50:18.840Z,1011.928376
2023-03-21T16:55:16.926Z,1011.958906
2023-03-21T17:00:17.243Z,1011.995964
2023-03-21T17:05:17.112Z,1012.003544
2023-03-21T17:10:17.098Z,1012.061938
2023-03-21T17:15:16.953Z,1012.118604
2023-03-21T17:20:17.104Z,1012.121591
2023-03-21T17:25:17.319Z,1012.124706
2023-03-21T17:30:16.959Z,1012.099193
2023-03-21T17:35:17.311Z,1012.144329
2023-03-21T17:40:17.260Z,1012.100996
2023-03-21T17:45:16.960Z,1012.094681
2023-03-21T17:50:17.050Z,1012.119826
2023-03-21T17:55:17.198Z,1012.180994
2023-03-21T18:00:17.578Z,1012.203966
2023-03-21T18:05:17.095Z,1012.235802
2023-03-21T18:10:17.052Z,1012.243291
2023-03-21T18:15:19.173Z,1012.277855
2023-03-21T18:20:17.134Z,1012.278978
2023-03-21T18:25:16.965Z,1012.275051
2023-03-21T18:30:47.314Z,1012.279466
2023-03-21T18:35:17.325Z,1012.309014
2023-03-21T18:40:16.877Z,1012.408269
2023-03-21T18:45:17.288Z,1012.408733
2023-03-21T18:50:16.896Z,1012.387543
2023-03-21T18:55:18.346Z,1012.386793
2023-03-21T19:05:17.430Z,1012.374855
2023-03-21T19:10:19.314Z,1012.383572
2023-03-21T19:15:16.897Z,1012.340623
2023-03-21T19:20:16.887Z,1012.338919
2023-03-21T19:25:16.910Z,1012.314523
2023-03-21T19:30:17.339Z,1012.243952
2023-03-21T19:35:17.501Z,1012.257863
2023-03-21T19:40:17.253Z,1012.288431
2023-03-21T19:45:16.895Z,1012.290631
2023-03-21T19:51:24.734Z,1012.469385
2023-03-21T19:55:17.170Z,1012.511252
2023-03-21T20:00:17.108Z,1012.503683
2023-03-21T20:05:17.148Z,1012.516738
2023-03-21T20:10:17.038Z,1012.554239
2023-03-21T20:15:20.896Z,1012.548293
2023-03-21T20:20:17.192Z,1012.574689
2023-03-21T20:25:16.943Z,1012.630309
2023-03-21T20:30:16.890Z,1012.663071
2023-03-21T20:35:25.270Z,1012.645350
2023-03-21T20:40:16.842Z,1012.712177
2023-03-21T20:45:17.478Z,1012.746823
2023-03-21T20:50:17.640Z,1012.760311
2023-03-21T20:55:17.026Z,1012.732824
2023-03-21T21:00:17.045Z,1012.755259
2023-03-21T21:05:25.837Z,1012.695605
2023-03-21T21:10:17.164Z,1012.724921
2023-03-21T21:15:17.068Z,1012.785264
2023-03-21T21:20:17.237Z,1012.784864
2023-03-21T21:25:17.242Z,1012.766909
2023-03-21T21:30:16.963Z,1012.812481
2023-03-21T21:35:17.268Z,1012.824683
2023-03-21T21:40:17.462Z,1012.824773
2023-03-21T21:45:16.935Z,1012.791815
2023-03-21T21:50:17.171Z,1012.781572
2023-03-21T21:55:17.118Z,1012.805672
2023-03-21T22:00:17.005Z,1012.817746
2023-03-21T22:05:16.980Z,1012.866674
2023-03-21T22:10:17.011Z,1012.904823
2023-03-21T22:15:17.016Z,1012.897469
2023-03-21T22:20:16.929Z,1012.840214
2023-03-21T22:25:16.874Z,1012.771596
2023-03-21T22:30:17.042Z,1012.752508
2023-03-21T22:35:17.049Z,1012.736686
2023-03-21T22:40:17.014Z,1012.774673
2023-03-21T22:45:17.025Z,1012.734341
2023-03-21T22:50:16.981Z,1012.764493
2023-03-21T22:55:16.970Z,1012.770449
2023-03-21T23:00:21.335Z,1012.690517
2023-03-21T23:05:17.548Z,1012.670672
2023-03-21T23:10:16.983Z,1012.630008
2023-03-21T23:15:17.000Z,1012.611989
2023-03-21T23:20:17.110Z,1012.534945
2023-03-21T23:25:17.209Z,1012.479187
2023-03-21T23:30:16.824Z,1012.414351
2023-03-21T23:35:17.214Z,1012.375366
2023-03-21T23:40:17.231Z,1012.386737
2023-03-21T23:45:17.452Z,1012.371764
2023-03-21T23:50:16.921Z,1012.349665
2023-03-21T23:55:16.882Z,1012.329158
